Time;durP1;ratioP1;P1;durP2;ratioP2;P2;SDS_P1;SDS_P2;PMS_P1;PMS_P2;Temp;Humidity;BMP_temperature;BMP_pressure;BME280_temperature;BME280_humidity;BME280_pressure;Samples;Min_cycle;Max_cycle;Signal;HPM_P1;HPM_P2
2021/11/24 00:01:08;;;;;;;46.60;26.30;;;7.20;99.90;;;;;;5033410;28;20207;-56
2021/11/24 00:03:35;;;;;;;46.92;27.50;;;7.20;99.90;;;;;;5033043;28;20732;-56
2021/11/24 00:06:02;;;;;;;44.55;27.25;;;7.20;99.90;;;;;;5032986;28;20729;-56
2021/11/24 00:08:31;;;;;;;47.22;26.98;;;7.20;99.90;;;;;;5033129;28;20746;-56
2021/11/24 00:10:58;;;;;;;49.55;25.58;;;7.20;99.90;;;;;;5033090;28;20235;-57
2021/11/24 00:13:26;;;;;;;41.85;26.75;;;7.20;99.90;;;;;;5032860;28;20753;-56
2021/11/24 00:15:53;;;;;;;41.38;23.92;;;7.20;99.90;;;;;;5033688;28;20242;-56
2021/11/24 00:18:20;;;;;;;40.25;23.80;;;7.20;99.90;;;;;;5032952;28;20200;-56
2021/11/24 00:20:47;;;;;;;40.28;24.83;;;7.20;99.90;;;;;;5034220;28;20269;-56
2021/11/24 00:23:15;;;;;;;40.58;25.60;;;7.30;99.90;;;;;;5034987;28;20196;-56
2021/11/24 00:25:43;;;;;;;33.55;22.63;;;7.30;99.90;;;;;;5037921;28;20364;-56
2021/11/24 00:28:11;;;;;;;40.78;22.67;;;7.30;99.90;;;;;;5039605;28;20225;-56
2021/11/24 00:30:38;;;;;;;42.22;25.70;;;7.30;99.90;;;;;;5040746;28;20257;-56
2021/11/24 00:33:05;;;;;;;36.88;22.50;;;7.30;99.90;;;;;;5039403;28;20301;-58
2021/11/24 00:35:33;;;;;;;38.53;21.85;;;7.30;99.90;;;;;;5038663;28;20793;-56
2021/11/24 00:38:00;;;;;;;36.40;23.02;;;7.30;99.90;;;;;;5038141;28;20293;-56
2021/11/24 00:40:27;;;;;;;38.05;23.05;;;7.30;99.90;;;;;;5038864;28;20296;-56
2021/11/24 00:42:56;;;;;;;38.17;23.35;;;7.30;99.90;;;;;;5039799;28;20208;-55
2021/11/24 00:45:23;;;;;;;39.13;22.63;;;7.30;99.90;;;;;;5037878;28;20318;-55
2021/11/24 00:47:50;;;;;;;37.97;22.30;;;7.20;99.90;;;;;;5037908;28;20198;-55
2021/11/24 00:50:18;;;;;;;37.03;22.52;;;7.30;99.90;;;;;;5038331;28;20328;-55
2021/11/24 00:52:45;;;;;;;40.05;23.42;;;7.30;99.90;;;;;;5036812;28;20844;-55
2021/11/24 00:55:13;;;;;;;35.17;21.40;;;7.30;99.90;;;;;;5036806;28;20698;-55
2021/11/24 00:57:40;;;;;;;36.53;22.38;;;7.30;99.90;;;;;;5036782;28;20261;-55
2021/11/24 01:00:14;;;;;;;37.10;23.50;;;7.30;99.90;;;;;;5036687;28;20741;-54
2021/11/24 01:02:42;;;;;;;34.22;21.42;;;7.30;99.90;;;;;;5037034;28;20187;-56
2021/11/24 01:05:09;;;;;;;33.72;20.30;;;7.30;99.90;;;;;;5036497;28;20256;-55
2021/11/24 01:07:37;;;;;;;34.97;21.85;;;7.30;99.90;;;;;;5036493;28;20730;-54
2021/11/24 01:10:07;;;;;;;31.70;20.00;;;7.30;99.90;;;;;;5036752;28;20285;-56
2021/11/24 01:12:35;;;;;;;37.35;22.08;;;7.30;99.90;;;;;;5036374;28;20230;-55
2021/11/24 01:15:02;;;;;;;35.55;19.92;;;7.30;99.90;;;;;;5036447;28;20313;-55
2021/11/24 01:17:31;;;;;;;34.17;21.45;;;7.30;99.90;;;;;;5036326;28;20256;-56
2021/11/24 01:19:58;;;;;;;30.70;19.45;;;7.30;99.90;;;;;;5036690;28;20230;-55
2021/11/24 01:22:26;;;;;;;32.17;21.40;;;7.30;99.90;;;;;;5036179;28;20238;-56
2021/11/24 01:24:53;;;;;;;31.35;19.67;;;7.30;99.90;;;;;;5035916;28;20313;-55
2021/11/24 01:27:20;;;;;;;31.05;19.63;;;7.30;99.90;;;;;;5036072;28;20554;-56
2021/11/24 01:29:48;;;;;;;32.58;20.23;;;7.30;99.90;;;;;;5036092;28;20298;-55
2021/11/24 01:32:15;;;;;;;32.22;20.95;;;7.30;99.90;;;;;;5036226;28;20300;-55
2021/11/24 01:34:44;;;;;;;38.28;20.65;;;7.30;99.90;;;;;;5036030;28;20309;-56
2021/11/24 01:37:11;;;;;;;31.55;19.95;;;7.30;99.90;;;;;;5035359;28;20644;-56
2021/11/24 01:39:39;;;;;;;32.05;19.83;;;7.30;99.90;;;;;;5035744;28;20285;-55
2021/11/24 01:42:07;;;;;;;37.85;19.08;;;7.30;99.90;;;;;;5035878;28;20209;-56
2021/11/24 01:44:34;;;;;;;31.90;19.30;;;7.30;99.90;;;;;;5035517;28;20758;-56
2021/11/24 01:47:05;;;;;;;34.33;19.55;;;7.30;99.90;;;;;;5036604;28;20209;-56
2021/11/24 01:49:33;;;;;;;33.33;18.90;;;7.30;99.90;;;;;;5036124;28;20191;-55
2021/11/24 01:52:03;;;;;;;31.92;19.10;;;7.30;99.90;;;;;;5035696;28;20666;-55
2021/11/24 01:54:31;;;;;;;31.73;18.80;;;7.30;99.90;;;;;;5035690;28;20317;-55
2021/11/24 01:56:58;;;;;;;32.65;18.50;;;7.30;99.90;;;;;;5035633;28;20198;-55
2021/11/24 01:59:26;;;;;;;32.10;18.77;;;7.30;99.90;;;;;;5035538;28;20290;-55
2021/11/24 02:01:54;;;;;;;32.67;19.10;;;7.30;99.90;;;;;;5035276;28;20299;-55
2021/11/24 02:04:22;;;;;;;35.67;19.73;;;7.30;99.90;;;;;;5035349;28;20308;-56
2021/11/24 02:06:51;;;;;;;32.80;19.60;;;7.30;99.90;;;;;;5035594;28;20230;-56
2021/11/24 02:09:21;;;;;;;33.90;20.55;;;7.30;99.90;;;;;;5035513;28;20200;-56
2021/11/24 02:11:49;;;;;;;30.05;18.42;;;7.20;99.90;;;;;;5035491;28;20222;-56
2021/11/24 02:14:18;;;;;;;33.15;18.60;;;7.30;99.90;;;;;;5035617;28;20334;-56
2021/11/24 02:16:47;;;;;;;29.30;16.55;;;7.20;99.90;;;;;;5035170;28;20638;-57
2021/11/24 02:19:15;;;;;;;30.70;18.48;;;7.20;99.90;;;;;;5035230;28;20293;-55
2021/11/24 02:21:48;;;;;;;28.17;16.20;;;7.20;99.90;;;;;;5035094;28;20244;-56
2021/11/24 02:24:16;;;;;;;33.25;18.25;;;7.20;99.90;;;;;;5034601;28;20269;-56
2021/11/24 02:26:43;;;;;;;31.70;19.52;;;7.20;99.90;;;;;;5034715;28;20302;-56
2021/11/24 02:29:11;;;;;;;30.42;18.17;;;7.20;99.90;;;;;;5034750;28;20250;-56
2021/11/24 02:31:38;;;;;;;26.70;17.38;;;7.20;99.90;;;;;;5035379;28;20202;-57
2021/11/24 02:34:06;;;;;;;30.08;18.08;;;7.30;99.90;;;;;;5035001;28;20295;-57
2021/11/24 02:36:34;;;;;;;29.85;17.88;;;7.20;99.90;;;;;;5037277;28;20269;-57
2021/11/24 02:39:03;;;;;;;32.42;18.50;;;7.20;99.90;;;;;;5034933;28;20623;-58
2021/11/24 02:41:31;;;;;;;31.52;18.70;;;7.20;99.90;;;;;;5035005;28;20237;-57
2021/11/24 02:44:15;;;;;;;28.20;17.40;;;7.20;99.90;;;;;;5034742;28;20245;-57
2021/11/24 02:46:42;;;;;;;35.40;17.85;;;7.20;99.90;;;;;;5034605;28;20245;-56
2021/11/24 02:49:10;;;;;;;35.10;18.10;;;7.20;99.90;;;;;;5033590;28;20237;-57
2021/11/24 02:51:38;;;;;;;29.77;18.20;;;7.20;99.90;;;;;;5034765;28;20237;-56
2021/11/24 02:54:07;;;;;;;32.92;18.65;;;7.20;99.90;;;;;;5034419;28;20230;-57
2021/11/24 02:56:34;;;;;;;33.40;18.02;;;7.20;99.90;;;;;;5035283;28;20639;-57
2021/11/24 02:59:02;;;;;;;29.73;17.25;;;7.20;99.90;;;;;;5034577;28;20636;-57
2021/11/24 03:01:30;;;;;;;33.67;18.27;;;7.20;99.90;;;;;;5034193;28;20205;-57
2021/11/24 03:03:57;;;;;;;32.35;18.95;;;7.20;99.90;;;;;;5034409;28;20261;-57
2021/11/24 03:06:24;;;;;;;31.70;18.92;;;7.20;99.90;;;;;;5034266;28;20234;-57
2021/11/24 03:08:51;;;;;;;31.98;18.95;;;7.20;99.90;;;;;;5034296;28;20293;-55
2021/11/24 03:11:20;;;;;;;31.92;18.45;;;7.20;99.90;;;;;;5034260;28;20252;-56
2021/11/24 03:13:47;;;;;;;38.08;20.50;;;7.20;99.90;;;;;;5034113;28;20294;-56
2021/11/24 03:16:15;;;;;;;33.85;18.80;;;7.20;99.90;;;;;;5033893;28;20752;-56
2021/11/24 03:18:42;;;;;;;32.78;19.52;;;7.20;99.90;;;;;;5033917;28;20254;-57
2021/11/24 03:21:09;;;;;;;35.95;20.08;;;7.20;99.90;;;;;;5033883;28;20673;-57
2021/11/24 03:23:36;;;;;;;29.42;20.00;;;7.20;99.90;;;;;;5033631;28;20757;-57
2021/11/24 03:26:03;;;;;;;36.33;19.70;;;7.20;99.90;;;;;;5033770;28;20618;-57
2021/11/24 03:28:32;;;;;;;35.20;18.75;;;7.20;99.90;;;;;;5033618;28;20294;-57
2021/11/24 03:30:59;;;;;;;33.80;19.55;;;7.20;99.90;;;;;;5033771;28;20238;-57
2021/11/24 03:33:27;;;;;;;33.83;19.83;;;7.20;99.90;;;;;;5034139;28;20241;-58
2021/11/24 03:35:54;;;;;;;37.10;19.85;;;7.20;99.90;;;;;;5033852;28;20261;-57
2021/11/24 03:38:21;;;;;;;34.72;19.55;;;7.20;99.90;;;;;;5033441;28;20260;-57
2021/11/24 03:40:48;;;;;;;30.98;18.45;;;7.20;99.90;;;;;;5033774;28;20233;-57
2021/11/24 03:43:16;;;;;;;32.20;19.58;;;7.20;99.90;;;;;;5033554;28;20674;-58
2021/11/24 03:45:44;;;;;;;30.30;17.63;;;7.20;99.90;;;;;;5033351;28;20309;-57
2021/11/24 03:48:12;;;;;;;35.10;20.73;;;7.10;99.90;;;;;;5033694;28;20284;-57
2021/11/24 03:50:39;;;;;;;34.90;20.13;;;7.20;99.90;;;;;;5033265;28;20294;-54
2021/11/24 03:53:06;;;;;;;36.40;20.13;;;7.10;99.90;;;;;;5033340;28;20257;-58
2021/11/24 03:55:34;;;;;;;36.05;20.30;;;7.10;99.90;;;;;;5033169;28;20657;-57
2021/11/24 03:58:02;;;;;;;34.10;20.50;;;7.10;99.90;;;;;;5033156;28;20625;-58
2021/11/24 04:00:31;;;;;;;35.28;19.92;;;7.10;99.90;;;;;;5032872;28;20298;-57
2021/11/24 04:03:00;;;;;;;35.35;20.38;;;7.10;99.90;;;;;;5033321;28;20202;-58
2021/11/24 04:08:56;;;;;;;33.55;20.83;;;7.10;99.90;;;;;;5111811;27;20880;-57
2021/11/24 04:11:23;;;;;;;34.63;19.33;;;7.20;99.90;;;;;;5111187;28;20200;-57
2021/11/24 04:13:50;;;;;;;39.50;20.23;;;7.20;99.90;;;;;;5111116;28;20307;-57
2021/11/24 04:16:18;;;;;;;38.80;20.98;;;7.20;99.90;;;;;;5110750;28;20287;-58
2021/11/24 04:18:47;;;;;;;28.85;19.17;;;7.10;99.90;;;;;;5111108;28;20283;-58
2021/11/24 04:21:14;;;;;;;32.90;17.63;;;7.10;99.90;;;;;;5106932;22;20597;-55
2021/11/24 04:23:42;;;;;;;31.27;18.98;;;7.10;99.90;;;;;;5049871;28;20299;-54
2021/11/24 04:26:10;;;;;;;31.27;18.90;;;7.10;99.90;;;;;;5050110;28;20248;-54
2021/11/24 04:28:38;;;;;;;33.10;18.63;;;7.20;99.90;;;;;;5049812;28;20268;-56
2021/11/24 04:31:08;;;;;;;33.40;19.55;;;7.20;99.90;;;;;;5049800;28;20217;-56
2021/11/24 04:33:36;;;;;;;28.75;17.48;;;7.20;99.90;;;;;;5050205;28;20669;-55
2021/11/24 04:36:03;;;;;;;33.28;19.45;;;7.20;99.90;;;;;;5051766;28;20252;-55
2021/11/24 04:38:31;;;;;;;30.90;18.48;;;7.20;99.90;;;;;;5051283;28;20229;-54
2021/11/24 04:40:58;;;;;;;35.92;19.35;;;7.30;99.90;;;;;;5050990;28;20263;-55
2021/11/24 04:43:29;;;;;;;28.63;17.67;;;7.30;99.90;;;;;;5051349;28;20293;-55
2021/11/24 04:45:59;;;;;;;27.77;17.80;;;7.30;99.90;;;;;;5051251;28;20220;-54
2021/11/24 04:48:26;;;;;;;27.85;16.20;;;7.30;99.90;;;;;;5050362;28;20227;-54
2021/11/24 04:50:54;;;;;;;28.17;18.15;;;7.30;99.90;;;;;;5050319;28;20643;-55
2021/11/24 04:53:21;;;;;;;28.95;17.73;;;7.30;99.90;;;;;;5050576;28;20289;-56
2021/11/24 04:55:49;;;;;;;24.85;17.05;;;7.30;99.90;;;;;;5049965;28;20232;-55
2021/11/24 04:58:16;;;;;;;28.63;17.10;;;7.30;99.90;;;;;;5050680;28;20637;-56
2021/11/24 05:00:45;;;;;;;27.58;16.98;;;7.30;99.90;;;;;;5049088;28;20751;-54
2021/11/24 05:03:12;;;;;;;28.23;16.75;;;7.20;99.90;;;;;;5049266;28;20199;-55
2021/11/24 05:05:39;;;;;;;28.20;16.63;;;7.20;99.90;;;;;;5049584;28;20237;-55
2021/11/24 05:08:07;;;;;;;27.85;16.33;;;7.20;99.90;;;;;;5049193;28;20218;-55
2021/11/24 05:10:35;;;;;;;24.67;14.65;;;7.20;99.90;;;;;;5048948;28;20721;-54
2021/11/24 05:13:03;;;;;;;23.02;16.60;;;7.20;99.90;;;;;;5049027;28;20289;-55
2021/11/24 05:15:31;;;;;;;24.40;15.55;;;7.20;99.90;;;;;;5049287;28;20234;-56
2021/11/24 05:18:04;;;;;;;26.08;14.70;;;7.20;99.90;;;;;;5048860;28;20670;-54
2021/11/24 05:20:32;;;;;;;25.17;15.80;;;7.20;99.90;;;;;;5035358;28;20269;-54
2021/11/24 05:23:02;;;;;;;23.13;15.35;;;7.20;99.90;;;;;;5035814;28;20187;-55
2021/11/24 05:25:31;;;;;;;23.25;14.25;;;7.20;99.90;;;;;;5035546;28;20193;-54
2021/11/24 05:27:58;;;;;;;25.55;13.90;;;7.20;99.90;;;;;;5035324;28;20311;-54
2021/11/24 05:30:27;;;;;;;20.52;12.95;;;7.20;99.90;;;;;;5035708;28;20297;-56
2021/11/24 05:32:55;;;;;;;23.98;13.73;;;7.20;99.90;;;;;;5035689;28;20202;-55
2021/11/24 05:35:25;;;;;;;25.77;13.77;;;7.20;99.90;;;;;;5035370;28;20745;-55
2021/11/24 05:37:53;;;;;;;28.58;16.20;;;7.20;99.90;;;;;;5035959;28;20198;-53
2021/11/24 05:40:20;;;;;;;26.02;14.35;;;7.20;99.90;;;;;;5036120;28;20238;-56
2021/11/24 05:42:49;;;;;;;19.45;13.68;;;7.20;99.90;;;;;;5035672;28;20230;-55
2021/11/24 05:45:27;;;;;;;20.40;13.50;;;7.20;99.90;;;;;;5035364;28;20209;-55
2021/11/24 05:47:57;;;;;;;23.80;14.05;;;7.20;99.90;;;;;;5035199;28;20215;-55
2021/11/24 05:50:27;;;;;;;22.83;12.80;;;7.20;99.90;;;;;;5035335;28;20197;-54
2021/11/24 05:52:55;;;;;;;24.75;14.13;;;7.20;99.90;;;;;;5035391;28;20202;-54
2021/11/24 05:55:23;;;;;;;22.13;13.63;;;7.20;99.90;;;;;;5035469;28;20227;-55
2021/11/24 05:57:50;;;;;;;19.55;12.52;;;7.20;99.90;;;;;;5035032;28;20301;-55
2021/11/24 06:00:18;;;;;;;18.77;12.35;;;7.30;99.90;;;;;;5035288;28;20290;-54
2021/11/24 06:02:46;;;;;;;20.92;13.45;;;7.30;99.90;;;;;;5035206;28;20256;-53
2021/11/24 06:05:14;;;;;;;22.27;12.63;;;7.30;99.90;;;;;;5034917;28;20245;-54
2021/11/24 06:07:45;;;;;;;19.33;12.32;;;7.30;99.90;;;;;;5035057;28;20251;-54
2021/11/24 06:10:14;;;;;;;18.50;11.60;;;7.30;99.90;;;;;;5035145;28;20189;-55
2021/11/24 06:12:42;;;;;;;18.55;11.55;;;7.30;99.90;;;;;;5034782;28;20226;-54
2021/11/24 06:15:14;;;;;;;20.73;11.73;;;7.30;99.90;;;;;;5034637;28;20296;-53
2021/11/24 06:17:42;;;;;;;18.92;12.20;;;7.30;99.90;;;;;;5034553;28;20642;-55
2021/11/24 06:20:10;;;;;;;19.95;12.70;;;7.30;99.90;;;;;;5034741;28;20288;-54
2021/11/24 06:22:37;;;;;;;21.23;12.20;;;7.30;99.90;;;;;;5034371;28;20325;-54
2021/11/24 06:25:06;;;;;;;23.13;11.90;;;7.40;99.90;;;;;;5034439;28;20226;-54
2021/11/24 06:27:34;;;;;;;21.63;12.65;;;7.30;99.90;;;;;;5034201;28;20250;-54
2021/11/24 06:30:01;;;;;;;18.60;12.50;;;7.30;99.90;;;;;;5033933;28;20200;-54
2021/11/24 06:32:28;;;;;;;20.80;12.35;;;7.30;99.90;;;;;;5034031;28;20224;-54
2021/11/24 06:34:55;;;;;;;21.38;13.38;;;7.40;99.90;;;;;;5034688;28;20292;-54
2021/11/24 06:37:23;;;;;;;21.98;12.40;;;7.40;99.90;;;;;;5034102;28;20241;-54
2021/11/24 06:39:50;;;;;;;19.42;11.40;;;7.40;99.90;;;;;;5034439;28;20397;-55
2021/11/24 06:42:19;;;;;;;20.98;11.70;;;7.40;99.90;;;;;;5035170;28;20329;-53
2021/11/24 06:44:46;;;;;;;19.88;11.07;;;7.40;99.90;;;;;;5035219;28;20210;-53
2021/11/24 06:47:14;;;;;;;17.90;11.82;;;7.40;99.90;;;;;;5034430;28;20210;-52
2021/11/24 06:49:43;;;;;;;20.33;11.88;;;7.40;99.90;;;;;;5034278;28;20197;-53
2021/11/24 06:52:10;;;;;;;19.25;12.23;;;7.40;99.90;;;;;;5034238;28;20226;-53
2021/11/24 06:54:37;;;;;;;21.42;11.98;;;7.40;99.90;;;;;;5034536;28;20234;-54
2021/11/24 06:57:05;;;;;;;22.45;12.27;;;7.40;99.90;;;;;;5033687;28;20200;-54
2021/11/24 06:59:34;;;;;;;18.50;11.85;;;7.40;99.90;;;;;;5034414;28;20272;-52
2021/11/24 07:02:01;;;;;;;15.80;11.15;;;7.40;99.90;;;;;;5033961;28;20277;-54
2021/11/24 07:04:28;;;;;;;17.20;11.40;;;7.40;99.90;;;;;;5034244;28;20234;-54
2021/11/24 07:06:55;;;;;;;20.67;13.43;;;7.40;99.90;;;;;;5033919;28;20231;-53
2021/11/24 07:09:24;;;;;;;18.75;12.68;;;7.40;99.90;;;;;;5033747;28;20250;-54
2021/11/24 07:11:52;;;;;;;16.55;10.68;;;7.40;99.90;;;;;;5033536;28;20710;-55
2021/11/24 07:14:19;;;;;;;16.75;10.80;;;7.40;99.90;;;;;;5034535;28;20274;-54
2021/11/24 07:16:47;;;;;;;16.90;10.65;;;7.40;99.90;;;;;;5034380;28;20295;-54
2021/11/24 07:19:16;;;;;;;18.60;11.43;;;7.50;99.90;;;;;;5034614;28;20202;-53
2021/11/24 07:21:47;;;;;;;19.58;12.27;;;7.50;99.90;;;;;;5034082;28;20288;-54
2021/11/24 07:24:15;;;;;;;19.30;12.00;;;7.50;99.90;;;;;;5034345;28;20253;-52
2021/11/24 07:26:42;;;;;;;19.35;11.50;;;7.50;99.90;;;;;;5033810;28;20206;-53
2021/11/24 07:29:10;;;;;;;19.02;11.60;;;7.50;99.90;;;;;;5033676;28;20265;-55
2021/11/24 07:31:37;;;;;;;16.77;10.52;;;7.60;99.90;;;;;;5033899;28;20314;-54
2021/11/24 07:34:06;;;;;;;17.25;10.35;;;7.50;99.90;;;;;;5033629;28;20293;-54
2021/11/24 07:36:34;;;;;;;17.27;11.63;;;7.60;99.90;;;;;;5033501;28;20230;-53
2021/11/24 07:39:01;;;;;;;18.40;11.50;;;7.60;99.90;;;;;;5033201;28;20285;-54
2021/11/24 07:41:28;;;;;;;16.35;11.40;;;7.60;99.90;;;;;;5032921;28;20740;-54
2021/11/24 07:43:55;;;;;;;15.50;10.60;;;7.60;99.90;;;;;;5032933;28;20253;-54
2021/11/24 07:46:23;;;;;;;16.83;10.43;;;7.60;99.90;;;;;;5032860;28;20242;-53
2021/11/24 07:48:50;;;;;;;17.48;12.02;;;7.70;99.90;;;;;;5032951;28;20382;-53
2021/11/24 07:51:19;;;;;;;17.23;11.13;;;7.70;99.90;;;;;;5032855;28;20717;-54
2021/11/24 07:53:47;;;;;;;20.48;12.57;;;7.70;99.90;;;;;;5033269;28;20230;-53
2021/11/24 07:56:14;;;;;;;20.65;11.88;;;7.70;99.90;;;;;;5032707;28;20313;-54
2021/11/24 07:58:42;;;;;;;26.52;12.73;;;7.80;99.90;;;;;;5032602;28;20236;-54
2021/11/24 08:01:09;;;;;;;17.85;11.80;;;7.80;99.90;;;;;;5032897;28;20313;-55
2021/11/24 08:03:37;;;;;;;21.05;12.00;;;7.80;99.90;;;;;;5032889;28;20582;-54
2021/11/24 08:06:05;;;;;;;15.70;11.15;;;7.80;99.90;;;;;;5032660;28;20243;-55
2021/11/24 08:08:34;;;;;;;21.08;12.07;;;7.80;99.90;;;;;;5032602;28;20337;-54
2021/11/24 08:11:02;;;;;;;18.08;12.35;;;7.80;99.90;;;;;;5033352;28;20226;-54
2021/11/24 08:13:29;;;;;;;16.58;10.82;;;7.90;99.90;;;;;;5033897;28;20201;-54
2021/11/24 08:15:57;;;;;;;14.88;11.10;;;7.90;99.90;;;;;;5034361;28;20207;-54
2021/11/24 08:18:24;;;;;;;16.23;11.65;;;7.90;99.90;;;;;;5034303;28;20704;-53
2021/11/24 08:20:52;;;;;;;16.08;9.77;;;7.90;99.90;;;;;;5033114;28;20323;-55
2021/11/24 08:23:19;;;;;;;18.17;11.18;;;8.00;99.90;;;;;;5032727;28;20237;-51
2021/11/24 08:25:48;;;;;;;16.02;10.95;;;8.00;99.90;;;;;;5033115;28;20233;-55
2021/11/24 08:28:16;;;;;;;16.67;10.77;;;8.00;99.90;;;;;;5032650;28;20260;-55
2021/11/24 08:30:43;;;;;;;17.35;10.95;;;8.10;99.90;;;;;;5032684;28;20270;-55
2021/11/24 08:33:11;;;;;;;15.20;10.45;;;8.10;99.90;;;;;;5032577;28;20232;-54
2021/11/24 08:35:38;;;;;;;18.77;11.55;;;8.10;99.90;;;;;;5033071;28;20733;-53
2021/11/24 08:38:06;;;;;;;16.23;11.23;;;8.00;99.90;;;;;;5033211;28;20305;-54
2021/11/24 08:40:33;;;;;;;14.80;10.20;;;8.00;99.90;;;;;;5032793;28;20291;-54
2021/11/24 08:43:03;;;;;;;20.42;13.18;;;8.00;99.90;;;;;;5034782;28;20249;-55
2021/11/24 08:45:30;;;;;;;16.77;11.57;;;8.00;99.90;;;;;;5034428;28;20681;-54
2021/11/24 08:47:58;;;;;;;14.35;10.77;;;8.10;99.90;;;;;;5035046;28;20222;-54
2021/11/24 08:50:25;;;;;;;15.45;10.80;;;8.20;99.90;;;;;;5033394;28;20293;-55
2021/11/24 08:52:52;;;;;;;16.48;12.15;;;8.20;99.90;;;;;;5033318;28;20198;-55
2021/11/24 08:55:20;;;;;;;17.17;10.68;;;8.30;99.90;;;;;;5037141;28;20271;-54
2021/11/24 08:57:47;;;;;;;15.82;11.10;;;8.30;99.90;;;;;;5037293;28;20207;-55
2021/11/24 09:00:19;;;;;;;14.38;10.02;;;8.30;99.90;;;;;;5036915;28;20198;-55
2021/11/24 09:02:50;;;;;;;16.40;9.93;;;8.30;99.90;;;;;;5037126;28;20218;-56
2021/11/24 09:05:18;;;;;;;15.85;10.52;;;8.40;99.90;;;;;;5036913;28;20218;-56
2021/11/24 09:07:46;;;;;;;14.80;10.50;;;8.40;99.90;;;;;;5036966;28;20202;-54
2021/11/24 09:10:15;;;;;;;14.43;11.02;;;8.40;99.90;;;;;;5036755;28;20222;-55
2021/11/24 09:12:42;;;;;;;15.52;9.98;;;8.40;99.90;;;;;;5036806;28;20226;-55
2021/11/24 09:15:10;;;;;;;14.27;10.10;;;8.50;99.90;;;;;;5036021;28;20297;-54
2021/11/24 09:17:38;;;;;;;17.40;11.48;;;8.50;99.90;;;;;;5035822;28;20238;-54
2021/11/24 09:20:07;;;;;;;15.73;10.55;;;8.60;99.90;;;;;;5035776;28;20293;-55
2021/11/24 09:22:35;;;;;;;16.05;10.70;;;8.60;99.90;;;;;;5035612;28;20230;-54
2021/11/24 09:25:02;;;;;;;14.45;9.77;;;8.60;99.90;;;;;;5036101;28;20210;-54
2021/11/24 09:27:31;;;;;;;17.52;10.77;;;8.60;99.90;;;;;;5035987;28;20238;-56
2021/11/24 09:30:00;;;;;;;15.73;10.10;;;8.60;99.90;;;;;;5035897;28;20571;-55
2021/11/24 09:32:28;;;;;;;15.18;11.15;;;8.60;99.90;;;;;;5035808;28;20272;-55
2021/11/24 09:34:57;;;;;;;17.52;11.57;;;8.70;99.90;;;;;;5035874;28;20301;-56
2021/11/24 09:37:24;;;;;;;20.63;13.88;;;8.70;99.90;;;;;;5035733;28;20345;-56
2021/11/24 09:39:51;;;;;;;18.38;12.98;;;8.70;99.90;;;;;;5035327;28;20638;-56
2021/11/24 09:42:21;;;;;;;17.10;12.10;;;8.70;99.90;;;;;;5034871;28;20254;-56
2021/11/24 09:44:50;;;;;;;20.63;14.02;;;8.70;99.90;;;;;;5035443;28;20202;-56
2021/11/24 09:47:17;;;;;;;18.92;12.07;;;8.60;99.90;;;;;;5035323;28;20289;-55
2021/11/24 09:49:48;;;;;;;16.05;10.85;;;8.60;99.90;;;;;;5034783;28;20305;-55
2021/11/24 09:52:19;;;;;;;19.20;12.02;;;8.60;99.90;;;;;;5035133;28;20276;-54
2021/11/24 09:54:49;;;;;;;19.02;11.95;;;8.60;99.90;;;;;;5034640;28;20209;-57
2021/11/24 09:57:18;;;;;;;16.13;11.65;;;8.60;99.90;;;;;;5034927;28;20197;-58
2021/11/24 09:59:46;;;;;;;18.45;12.45;;;8.60;99.90;;;;;;5034970;28;20202;-56
2021/11/24 10:02:14;;;;;;;16.67;12.32;;;8.70;99.90;;;;;;5034679;28;20276;-57
2021/11/24 10:04:42;;;;;;;16.13;12.10;;;8.80;99.90;;;;;;5035073;28;20297;-57
2021/11/24 10:07:10;;;;;;;19.08;12.48;;;8.80;99.90;;;;;;5034791;28;20237;-56
2021/11/24 10:09:40;;;;;;;17.75;12.63;;;8.80;99.90;;;;;;5035414;28;20325;-55
2021/11/24 10:12:08;;;;;;;16.67;12.00;;;8.90;99.90;;;;;;5035380;28;20250;-56
2021/11/24 10:14:36;;;;;;;17.83;12.00;;;8.90;99.90;;;;;;5035373;28;20234;-57
2021/11/24 10:17:08;;;;;;;18.35;11.82;;;8.90;99.90;;;;;;5034338;28;20294;-57
2021/11/24 10:19:36;;;;;;;19.67;12.55;;;8.90;99.90;;;;;;5034287;28;20202;-56
2021/11/24 10:22:05;;;;;;;15.68;11.15;;;8.90;99.90;;;;;;5066719;22;20250;-58
2021/11/24 10:24:34;;;;;;;19.55;12.35;;;8.90;99.90;;;;;;5034574;28;20252;-56
2021/11/24 10:27:05;;;;;;;20.58;11.52;;;8.90;99.90;;;;;;5034419;28;20252;-55
2021/11/24 10:29:32;;;;;;;16.75;11.57;;;8.90;99.90;;;;;;5034239;28;20390;-57
2021/11/24 10:32:02;;;;;;;15.70;11.13;;;8.90;99.90;;;;;;5034641;28;20222;-57
2021/11/24 10:34:31;;;;;;;23.23;12.43;;;8.90;99.90;;;;;;5034360;28;20294;-56
2021/11/24 10:37:04;;;;;;;15.30;10.60;;;8.90;99.90;;;;;;5035308;28;20234;-56
2021/11/24 10:39:34;;;;;;;16.42;10.75;;;8.90;99.90;;;;;;5034333;28;20187;-57
2021/11/24 10:42:12;;;;;;;14.95;10.10;;;8.90;99.90;;;;;;5034349;28;20265;-57
2021/11/24 10:44:42;;;;;;;18.95;12.98;;;8.90;99.90;;;;;;5034536;28;20246;-58
2021/11/24 10:47:11;;;;;;;14.88;11.40;;;8.90;99.90;;;;;;5034595;28;20241;-57
2021/11/24 10:49:42;;;;;;;15.55;10.25;;;8.90;99.90;;;;;;5033925;28;20222;-57
2021/11/24 10:52:15;;;;;;;15.25;10.43;;;8.90;99.90;;;;;;5034501;28;20222;-57
2021/11/24 10:54:43;;;;;;;14.93;11.23;;;8.90;99.90;;;;;;5034292;28;20614;-58
2021/11/24 10:57:13;;;;;;;15.30;10.90;;;8.90;99.90;;;;;;5033876;28;20616;-57
2021/11/24 10:59:42;;;;;;;16.20;11.70;;;8.90;99.90;;;;;;5034375;28;20214;-58
2021/11/24 11:02:22;;;;;;;16.35;10.50;;;8.90;99.90;;;;;;5033809;28;20655;-58
2021/11/24 11:04:58;;;;;;;17.85;11.40;;;8.80;99.90;;;;;;5034196;28;20214;-58
2021/11/24 11:07:27;;;;;;;15.73;10.90;;;8.80;99.90;;;;;;5033810;28;20259;-57
2021/11/24 11:10:01;;;;;;;14.40;9.60;;;8.80;99.90;;;;;;5033355;28;20341;-57
2021/11/24 11:12:31;;;;;;;13.70;9.93;;;8.90;99.90;;;;;;5033620;28;20225;-57
2021/11/24 11:15:20;;;;;;;15.50;10.98;;;8.80;99.90;;;;;;5033275;28;20288;-57
2021/11/24 11:18:03;;;;;;;13.93;9.82;;;8.80;99.90;;;;;;5032925;28;20277;-57
2021/11/24 11:20:33;;;;;;;15.80;10.70;;;8.80;99.90;;;;;;5033273;28;20237;-57
2021/11/24 11:23:19;;;;;;;15.35;10.80;;;8.80;99.90;;;;;;5033172;28;20788;-57
2021/11/24 11:25:49;;;;;;;15.57;10.63;;;8.80;99.90;;;;;;5033297;28;20286;-57
2021/11/24 11:28:20;;;;;;;16.33;10.88;;;8.80;99.90;;;;;;5033134;28;20294;-58
2021/11/24 11:30:48;;;;;;;19.38;12.43;;;8.80;99.90;;;;;;5033783;28;20257;-58
2021/11/24 11:33:19;;;;;;;18.05;10.27;;;8.80;99.90;;;;;;5033394;28;20226;-58
2021/11/24 11:35:47;;;;;;;15.85;9.98;;;8.90;99.90;;;;;;5034056;28;20187;-58
2021/11/24 11:38:16;;;;;;;14.85;9.35;;;8.90;99.90;;;;;;5032922;28;20737;-57
2021/11/24 11:40:44;;;;;;;13.77;9.60;;;8.90;99.90;;;;;;5033664;28;20720;-56
2021/11/24 11:43:12;;;;;;;13.38;9.50;;;8.90;99.90;;;;;;5032773;28;20226;-57
2021/11/24 11:45:41;;;;;;;15.68;10.38;;;8.90;99.90;;;;;;5033008;28;20293;-57
2021/11/24 11:48:09;;;;;;;14.68;11.07;;;9.00;99.90;;;;;;5032624;28;20244;-56
2021/11/24 11:50:57;;;;;;;14.73;10.30;;;8.90;99.90;;;;;;5032559;28;20218;-57
2021/11/24 11:53:27;;;;;;;13.00;9.75;;;9.00;99.90;;;;;;5033039;28;20245;-58
2021/11/24 11:56:20;;;;;;;12.75;9.50;;;9.00;99.90;;;;;;5033260;28;20679;-57
2021/11/24 11:58:57;;;;;;;13.23;9.63;;;9.00;99.90;;;;;;5029711;28;20265;-58
2021/11/24 12:01:28;;;;;;;12.23;8.48;;;9.00;99.90;;;;;;5032760;28;20702;-59
2021/11/24 12:04:00;;;;;;;11.45;8.95;;;9.00;99.90;;;;;;5033087;28;20228;-57
2021/11/24 12:06:29;;;;;;;12.77;9.02;;;9.00;99.90;;;;;;5032482;28;20191;-57
2021/11/24 12:09:25;;;;;;;13.25;8.77;;;8.90;99.90;;;;;;5032982;28;20244;-58
2021/11/24 12:12:18;;;;;;;11.73;8.65;;;8.90;99.90;;;;;;4998228;28;20226;-58
2021/11/24 12:15:04;;;;;;;12.15;9.50;;;8.80;99.90;;;;;;5032557;28;20650;-57
2021/11/24 12:17:41;;;;;;;15.43;9.35;;;8.80;99.90;;;;;;5032623;28;20249;-57
2021/11/24 12:20:42;;;;;;;14.75;9.35;;;8.80;99.90;;;;;;5032610;28;20676;-57
2021/11/24 12:23:30;;;;;;;13.70;9.68;;;8.80;99.90;;;;;;5032426;28;20564;-58
2021/11/24 12:25:59;;;;;;;13.68;9.40;;;8.80;99.90;;;;;;5028351;28;20229;-57
2021/11/24 12:28:38;;;;;;;12.57;8.80;;;8.80;99.90;;;;;;5032898;28;20202;-58
2021/11/24 12:31:15;;;;;;;13.65;10.27;;;8.80;99.90;;;;;;5036658;28;20265;-58
2021/11/24 12:33:53;;;;;;;12.38;9.30;;;8.90;99.90;;;;;;5036510;28;20229;-57
2021/11/24 12:36:24;;;;;;;13.73;9.75;;;8.90;99.90;;;;;;5036645;28;20191;-57
2021/11/24 12:38:53;;;;;;;12.13;8.40;;;9.00;99.90;;;;;;5036514;28;20248;-58
2021/11/24 12:41:24;;;;;;;15.75;8.52;;;9.00;99.90;;;;;;5036356;28;20218;-59
2021/11/24 12:43:54;;;;;;;16.02;10.88;;;9.00;99.90;;;;;;5035947;28;20206;-59
2021/11/24 12:46:24;;;;;;;13.25;8.75;;;9.00;99.90;;;;;;5035825;28;20344;-59
2021/11/24 12:48:54;;;;;;;10.57;8.17;;;9.00;99.90;;;;;;5036371;28;20225;-59
2021/11/24 12:51:25;;;;;;;14.27;9.50;;;9.00;99.90;;;;;;5036406;28;20536;-58